createdAt,value
2017-06-02T00:04:42.925Z,0
2017-06-02T00:09:42.660Z,0
2017-06-02T00:14:39.599Z,0
2017-06-02T00:29:45.431Z,0
2017-06-02T00:34:45.286Z,0
2017-06-02T00:54:59.754Z,0
2017-06-02T01:00:01.116Z,0
2017-06-02T01:04:57.566Z,0
2017-06-02T01:09:53.546Z,0
2017-06-02T01:20:01.325Z,0
2017-06-02T01:25:01.658Z,0
2017-06-02T01:35:00.479Z,0
2017-06-02T01:39:56.716Z,0
2017-06-02T01:44:52.896Z,0
2017-06-02T01:54:57.869Z,0
2017-06-02T01:59:54.016Z,0
2017-06-02T02:04:53.125Z,0
2017-06-02T02:09:58.916Z,0
2017-06-02T02:15:00.828Z,0
2017-06-02T02:55:19.532Z,24
2017-06-02T03:05:20.472Z,72
2017-06-02T03:10:18.016Z,108
2017-06-02T03:25:15.806Z,308
2017-06-02T03:30:12.221Z,424
2017-06-02T03:50:13.497Z,1156
2017-06-02T03:55:12.703Z,1368
2017-06-02T04:10:17.169Z,2148
2017-06-02T04:20:15.166Z,2796
2017-06-02T04:25:11.737Z,3440
2017-06-02T04:30:07.789Z,4936
2017-06-02T04:35:05.194Z,5192
2017-06-02T04:40:02.240Z,5120
2017-06-02T04:44:59.098Z,4888
2017-06-02T04:49:56.075Z,4024
2017-06-02T04:54:52.175Z,4568
2017-06-02T04:59:54.058Z,4888
2017-06-02T05:04:52.382Z,5176
2017-06-02T05:09:49.240Z,7432
2017-06-02T05:14:46.494Z,9080
2017-06-02T05:19:43.877Z,9604
2017-06-02T05:24:39.817Z,9872
2017-06-02T05:29:36.882Z,13260
2017-06-02T05:34:33.636Z,14224
2017-06-02T05:39:31.484Z,9860
2017-06-02T05:44:27.783Z,7580
2017-06-02T05:49:23.885Z,6892
2017-06-02T05:54:20.472Z,7232
2017-06-02T05:59:16.585Z,6648
2017-06-02T06:04:12.234Z,6548
2017-06-02T06:09:08.028Z,6612
2017-06-02T06:14:03.432Z,6696
2017-06-02T06:18:59.106Z,6860
2017-06-02T06:23:54.916Z,6840
2017-06-02T06:28:54.158Z,6972
2017-06-02T06:33:50.100Z,7088
2017-06-02T06:38:46.694Z,7108
2017-06-02T06:58:46.770Z,10048
2017-06-02T07:13:47.204Z,11580
2017-06-02T07:18:43.577Z,10484
2017-06-02T07:23:39.237Z,12920
2017-06-02T07:28:36.703Z,11532
2017-06-02T07:38:33.622Z,12828
2017-06-02T07:53:37.179Z,38816
2017-06-02T08:08:37.051Z,21728
2017-06-02T08:28:46.466Z,38496
2017-06-02T08:33:43.472Z,36928
2017-06-02T08:38:39.675Z,37408
2017-06-02T08:43:36.839Z,41248
2017-06-02T08:48:34.432Z,50368
2017-06-02T08:53:30.614Z,30400
2017-06-02T08:58:28.840Z,35200
2017-06-02T09:03:23.226Z,24064
2017-06-02T09:08:18.517Z,16896
2017-06-02T09:13:13.236Z,18720
2017-06-02T09:18:09.282Z,34176
2017-06-02T09:23:05.492Z,38080
2017-06-02T09:28:03.451Z,65216
2017-06-02T09:33:00.323Z,58592
2017-06-02T09:37:57.131Z,76064
2017-06-02T09:42:54.370Z,65792
2017-06-02T09:47:51.358Z,72096
2017-06-02T09:52:49.302Z,71488
2017-06-02T09:57:45.227Z,65536
2017-06-02T10:02:41.667Z,74240
2017-06-02T10:07:38.232Z,66752
2017-06-02T10:12:34.816Z,75392
2017-06-02T10:17:33.539Z,68800
2017-06-02T10:22:28.993Z,37984
2017-06-02T10:27:25.641Z,69408
2017-06-02T10:32:21.924Z,65120
2017-06-02T10:37:18.582Z,63392
2017-06-02T10:42:14.981Z,51712
2017-06-02T10:47:11.135Z,62688
2017-06-02T10:52:07.706Z,81024
2017-06-02T10:57:04.250Z,60832
2017-06-02T11:02:00.498Z,64352
2017-06-02T11:06:57.019Z,53184
2017-06-02T11:11:53.786Z,69728
2017-06-02T11:16:50.114Z,71488
2017-06-02T11:21:46.328Z,88288
2017-06-02T11:26:42.631Z,86560
2017-06-02T11:31:39.334Z,95136
2017-06-02T11:36:36.747Z,81760
2017-06-02T11:41:32.332Z,66048
2017-06-02T11:46:28.324Z,69280
2017-06-02T11:51:25.225Z,97376
2017-06-02T11:56:22.100Z,90880
2017-06-02T12:01:18.211Z,62176
2017-06-02T12:06:13.609Z,72928
2017-06-02T12:11:10.316Z,58624
2017-06-02T12:16:07.150Z,69536
2017-06-02T12:21:02.894Z,76256
2017-06-02T12:25:57.611Z,87424
2017-06-02T12:30:52.401Z,76320
2017-06-02T12:35:48.753Z,22592
2017-06-02T12:40:42.243Z,12080
2017-06-02T12:45:36.820Z,10832
2017-06-02T12:50:32.119Z,14652
2017-06-02T12:55:28.319Z,98240
2017-06-02T13:00:27.132Z,29056
2017-06-02T13:05:21.344Z,60224
2017-06-02T13:10:17.510Z,12892
2017-06-02T13:15:17.878Z,44544
2017-06-02T13:20:13.325Z,69024
2017-06-02T13:30:10.307Z,78880
2017-06-02T13:35:08.811Z,17856
2017-06-02T13:40:02.632Z,8824
2017-06-02T13:44:58.014Z,52256
2017-06-02T13:49:53.985Z,58368
2017-06-02T13:54:49.903Z,54112
2017-06-02T13:59:46.004Z,22400
2017-06-02T14:04:41.815Z,8328
2017-06-02T14:09:36.992Z,8940
2017-06-02T14:14:32.138Z,6760
2017-06-02T14:19:27.778Z,8356
2017-06-02T14:24:25.850Z,8940
2017-06-02T14:29:21.247Z,8480
2017-06-02T14:34:17.094Z,7908
2017-06-02T14:39:12.846Z,7600
2017-06-02T14:44:08.551Z,7696
2017-06-02T14:49:04.686Z,6364
2017-06-02T14:54:00.461Z,4552
2017-06-02T14:58:56.286Z,5448
2017-06-02T15:03:51.994Z,4948
2017-06-02T15:08:48.205Z,4908
2017-06-02T15:13:44.267Z,6224
2017-06-02T15:18:40.357Z,6780
2017-06-02T15:23:36.653Z,7096
2017-06-02T15:28:32.754Z,7212
2017-06-02T15:33:28.885Z,5744
2017-06-02T15:38:24.902Z,6200
2017-06-02T15:43:21.078Z,5720
2017-06-02T15:48:16.627Z,5104
2017-06-02T15:53:12.600Z,4732
2017-06-02T15:58:08.481Z,5324
2017-06-02T16:03:06.817Z,5072
2017-06-02T16:08:02.259Z,4536
2017-06-02T16:12:58.196Z,5100
2017-06-02T16:17:54.492Z,4772
2017-06-02T16:22:50.278Z,5612
2017-06-02T21:03:37.414Z,0
2017-06-02T21:04:21.672Z,0
2017-06-02T21:06:40.196Z,0
2017-06-02T21:11:35.150Z,0
2017-06-02T21:16:31.572Z,0
2017-06-02T21:21:28.114Z,0
2017-06-02T21:26:24.064Z,0
2017-06-02T21:31:19.752Z,0
2017-06-02T21:36:16.561Z,0
2017-06-02T21:41:11.939Z,0
2017-06-02T21:46:07.876Z,0
2017-06-02T21:51:03.479Z,0
2017-06-02T21:56:00.638Z,0
2017-06-02T22:00:58.004Z,0
2017-06-02T22:05:53.772Z,0
2017-06-02T22:10:49.325Z,0
2017-06-02T22:15:46.135Z,0
2017-06-02T22:20:42.632Z,0
2017-06-02T22:25:38.539Z,0
2017-06-02T22:30:35.833Z,0
2017-06-02T22:35:31.379Z,0
2017-06-02T22:40:28.535Z,0
2017-06-02T22:45:25.557Z,0
2017-06-02T22:50:22.026Z,0
2017-06-02T22:55:18.932Z,0
2017-06-02T23:00:14.555Z,0
2017-06-02T23:05:11.231Z,0
2017-06-02T23:10:07.925Z,0
2017-06-02T23:15:03.844Z,0
2017-06-02T23:20:00.231Z,0
2017-06-02T23:24:57.065Z,0
2017-06-02T23:29:52.726Z,0
2017-06-02T23:34:48.771Z,0
2017-06-02T23:39:45.595Z,0
2017-06-02T23:44:41.251Z,0
2017-06-02T23:49:37.062Z,0
2017-06-02T23:54:33.055Z,0
2017-06-02T23:59:28.914Z,0
